Tribhuvan International Airport
VNKT : rendu visible

Aérodrome :











RETROUVEZ-NOUS SUR...

 
LOGIN :

S'inscrire | Disclaimer

   EN    FR    IT 

 









Légende :    VFR   VFR Marginal   IFR   IFR Intensif   IFR Très Intensif
Visi : 
Plafond : 
>= 8 km
>= 3000ft
5 à 8 km
1000 à 3000 ft
1500m à 5 km
500 à 1000 ft
800 à 1500m
200 à 500 ft
< 800m
< 200 ft
Symboles :   Orages  Brouillard  Fortes neiges  Fortes précipitations  Vent > 20 kt






- Altitude de l'aérodrome : 4390 ft
- Code IATA : KTM


VNKT - Tribhuvan International

DERNIER METAR :
  • 300750Z VRB02KT 7000 FEW020 22/04 Q1020 NOSIG

METARs EXPIRÉS :
  • 300720Z 24003KT 7000 FEW020 22/04 Q1021 NOSIG
  • 300650Z VRB02KT 6000 FEW020 22/06 Q1021 NOSIG
  • 300620Z 19003KT 6000 FEW020 21/06 Q1022 NOSIG
  • 300550Z 12003KT 5000 HZ FEW020 20/08 Q1023 NOSIG
  • 300520Z VRB02KT 4000 HZ FEW020 18/07 Q1023 NOSIG

TAF TAF VNKT
Valide du 30 à 00h jusqu'au 01 à 00h UTC


292300Z 3000/3024 00000KT 6000 FEW015
PROB40 3001/3003 3000 BR
BECMG 3003/3004 12003KT 6000 FEW015
BECMG 3007/3008 20006KT 8000 FEW020
BECMG 3014/3015 16003KT 6000 FEW010
FIR VNSM / Asie



MET'MAP, la Météo Aéronautique d'un coup d'oeil ! - Copyright ORBIFLY Décembre 2007 - Disclaimer

ORBIFLY MET'MAP TEAM :

Programmation & Développement : Alexandra Zaïnal
Sur une idée originale de : Baudouin d'Aumeries
Assistance à la programmation : Marc-Olivier Méhu
Soutien technique & logistique : Manuel Goepfert

Contact : metmap@orbifly.com




SOURCES & CREDITS :

   NOAA       Earth
Advisory